sensor_id;sensor_type;location;lat;lon;timestamp;temperature;humidity
73955;DHT22;62306;52.516;13.290;2023-11-21T00:01:19;8.70;99.90
73955;DHT22;62306;52.516;13.290;2023-11-21T00:03:46;8.50;99.90
73955;DHT22;62306;52.516;13.290;2023-11-21T00:06:13;8.50;99.90
73955;DHT22;62306;52.516;13.290;2023-11-21T00:08:40;8.40;99.90
73955;DHT22;62306;52.516;13.290;2023-11-21T00:11:07;8.20;99.90
73955;DHT22;62306;52.516;13.290;2023-11-21T00:13:33;8.20;99.90
73955;DHT22;62306;52.516;13.290;2023-11-21T00:16:00;8.10;99.90
73955;DHT22;62306;52.516;13.290;2023-11-21T00:18:29;8.10;99.90
73955;DHT22;62306;52.516;13.290;2023-11-21T00:20:55;8.00;99.90
73955;DHT22;62306;52.516;13.290;2023-11-21T00:23:24;8.00;99.90
73955;DHT22;62306;52.516;13.290;2023-11-21T00:25:51;7.90;99.90
73955;DHT22;62306;52.516;13.290;2023-11-21T00:28:18;7.90;99.90
73955;DHT22;62306;52.516;13.290;2023-11-21T00:30:45;7.90;99.90
73955;DHT22;62306;52.516;13.290;2023-11-21T00:33:12;7.80;99.90
73955;DHT22;62306;52.516;13.290;2023-11-21T00:35:40;7.80;99.90
73955;DHT22;62306;52.516;13.290;2023-11-21T00:38:07;7.80;99.90
73955;DHT22;62306;52.516;13.290;2023-11-21T00:40:35;7.80;99.90
73955;DHT22;62306;52.516;13.290;2023-11-21T00:43:03;7.80;99.90
73955;DHT22;62306;52.516;13.290;2023-11-21T00:45:30;7.80;99.90
73955;DHT22;62306;52.516;13.290;2023-11-21T00:47:57;7.80;99.90
73955;DHT22;62306;52.516;13.290;2023-11-21T00:50:24;7.80;99.90
73955;DHT22;62306;52.516;13.290;2023-11-21T00:52:52;7.80;99.90
73955;DHT22;62306;52.516;13.290;2023-11-21T00:55:19;7.80;99.90
73955;DHT22;62306;52.516;13.290;2023-11-21T00:57:46;7.80;99.90
73955;DHT22;62306;52.516;13.290;2023-11-21T01:00:14;7.80;99.90
73955;DHT22;62306;52.516;13.290;2023-11-21T01:02:43;7.80;99.90
73955;DHT22;62306;52.516;13.290;2023-11-21T01:05:10;7.80;99.90
73955;DHT22;62306;52.516;13.290;2023-11-21T01:07:37;7.80;99.90
73955;DHT22;62306;52.516;13.290;2023-11-21T01:10:06;7.60;99.90
73955;DHT22;62306;52.516;13.290;2023-11-21T01:12:34;7.60;99.90
73955;DHT22;62306;52.516;13.290;2023-11-21T01:15:01;7.50;99.90
73955;DHT22;62306;52.516;13.290;2023-11-21T01:17:28;7.60;99.90
73955;DHT22;62306;52.516;13.290;2023-11-21T01:19:55;7.60;99.90
73955;DHT22;62306;52.516;13.290;2023-11-21T01:22:23;7.60;99.90
73955;DHT22;62306;52.516;13.290;2023-11-21T01:24:51;7.60;99.90
73955;DHT22;62306;52.516;13.290;2023-11-21T01:27:19;7.60;99.90
73955;DHT22;62306;52.516;13.290;2023-11-21T01:29:46;7.50;99.90
73955;DHT22;62306;52.516;13.290;2023-11-21T01:32:13;7.60;99.90
73955;DHT22;62306;52.516;13.290;2023-11-21T01:34:40;7.60;99.90
73955;DHT22;62306;52.516;13.290;2023-11-21T09:12:11;5.90;99.90
73955;DHT22;62306;52.516;13.290;2023-11-21T09:14:38;5.80;99.90
73955;DHT22;62306;52.516;13.290;2023-11-21T09:17:05;5.70;99.90
73955;DHT22;62306;52.516;13.290;2023-11-21T09:19:36;5.80;99.90
73955;DHT22;62306;52.516;13.290;2023-11-21T09:22:03;5.80;99.90
73955;DHT22;62306;52.516;13.290;2023-11-21T09:24:30;5.80;99.90
73955;DHT22;62306;52.516;13.290;2023-11-21T09:26:57;5.80;99.90
73955;DHT22;62306;52.516;13.290;2023-11-21T09:29:26;5.80;99.90
73955;DHT22;62306;52.516;13.290;2023-11-21T09:31:54;5.90;99.90
73955;DHT22;62306;52.516;13.290;2023-11-21T09:34:25;5.90;99.90
73955;DHT22;62306;52.516;13.290;2023-11-21T09:36:52;5.90;99.90
73955;DHT22;62306;52.516;13.290;2023-11-21T09:39:19;6.00;99.90
73955;DHT22;62306;52.516;13.290;2023-11-21T09:41:49;6.00;99.90
73955;DHT22;62306;52.516;13.290;2023-11-21T09:44:19;6.00;99.90
73955;DHT22;62306;52.516;13.290;2023-11-21T09:46:51;6.00;99.90
73955;DHT22;62306;52.516;13.290;2023-11-21T09:49:23;6.00;99.90
73955;DHT22;62306;52.516;13.290;2023-11-21T09:51:54;5.90;99.90
73955;DHT22;62306;52.516;13.290;2023-11-21T09:54:22;5.90;99.90
73955;DHT22;62306;52.516;13.290;2023-11-21T09:56:49;6.70;99.90
73955;DHT22;62306;52.516;13.290;2023-11-21T09:59:16;5.80;99.90
73955;DHT22;62306;52.516;13.290;2023-11-21T10:01:44;5.80;99.90
73955;DHT22;62306;52.516;13.290;2023-11-21T10:04:13;5.80;99.90
73955;DHT22;62306;52.516;13.290;2023-11-21T10:06:41;5.80;99.90
73955;DHT22;62306;52.516;13.290;2023-11-21T10:09:10;5.80;99.90
73955;DHT22;62306;52.516;13.290;2023-11-21T10:11:40;5.80;99.90
73955;DHT22;62306;52.516;13.290;2023-11-21T10:14:08;5.90;99.90
73955;DHT22;62306;52.516;13.290;2023-11-21T10:16:38;5.90;99.90
73955;DHT22;62306;52.516;13.290;2023-11-21T10:19:05;5.80;99.90
73955;DHT22;62306;52.516;13.290;2023-11-21T10:21:34;5.80;99.90
73955;DHT22;62306;52.516;13.290;2023-11-21T10:24:01;5.80;99.90
73955;DHT22;62306;52.516;13.290;2023-11-21T10:26:28;5.70;99.90
73955;DHT22;62306;52.516;13.290;2023-11-21T10:28:57;5.70;99.90
73955;DHT22;62306;52.516;13.290;2023-11-21T10:31:25;5.60;99.90
73955;DHT22;62306;52.516;13.290;2023-11-21T10:33:53;5.60;99.90
73955;DHT22;62306;52.516;13.290;2023-11-21T10:36:27;5.60;99.90
73955;DHT22;62306;52.516;13.290;2023-11-21T10:38:56;5.60;99.90
73955;DHT22;62306;52.516;13.290;2023-11-21T10:41:23;5.60;99.90
73955;DHT22;62306;52.516;13.290;2023-11-21T10:43:53;5.60;99.90
73955;DHT22;62306;52.516;13.290;2023-11-21T10:46:21;5.70;99.90
73955;DHT22;62306;52.516;13.290;2023-11-21T10:48:52;5.70;99.90
73955;DHT22;62306;52.516;13.290;2023-11-21T10:51:20;5.70;99.90
73955;DHT22;62306;52.516;13.290;2023-11-21T10:53:47;5.70;99.90
73955;DHT22;62306;52.516;13.290;2023-11-21T10:56:18;5.60;99.90
73955;DHT22;62306;52.516;13.290;2023-11-21T10:58:48;5.50;99.90
73955;DHT22;62306;52.516;13.290;2023-11-21T11:01:17;5.50;99.90
73955;DHT22;62306;52.516;13.290;2023-11-21T11:03:47;5.50;99.90
73955;DHT22;62306;52.516;13.290;2023-11-21T11:06:14;5.40;99.90
73955;DHT22;62306;52.516;13.290;2023-11-21T11:08:41;5.40;99.90
73955;DHT22;62306;52.516;13.290;2023-11-21T11:11:09;5.50;99.90
73955;DHT22;62306;52.516;13.290;2023-11-21T11:13:38;5.40;99.90
73955;DHT22;62306;52.516;13.290;2023-11-21T11:16:06;5.40;99.90
73955;DHT22;62306;52.516;13.290;2023-11-21T11:18:36;5.30;99.90
73955;DHT22;62306;52.516;13.290;2023-11-21T11:21:10;5.30;99.90
73955;DHT22;62306;52.516;13.290;2023-11-21T11:23:52;5.30;99.90
73955;DHT22;62306;52.516;13.290;2023-11-21T11:26:32;5.30;99.90
73955;DHT22;62306;52.516;13.290;2023-11-21T11:29:10;5.30;99.90
73955;DHT22;62306;52.516;13.290;2023-11-21T11:31:50;5.30;99.90
73955;DHT22;62306;52.516;13.290;2023-11-21T11:34:26;5.10;99.90
73955;DHT22;62306;52.516;13.290;2023-11-21T11:37:00;5.20;99.90
73955;DHT22;62306;52.516;13.290;2023-11-21T11:39:29;5.20;99.90
73955;DHT22;62306;52.516;13.290;2023-11-21T11:41:56;5.10;99.90
73955;DHT22;62306;52.516;13.290;2023-11-21T11:44:47;5.10;99.90
73955;DHT22;62306;52.516;13.290;2023-11-21T11:47:19;5.10;99.90
73955;DHT22;62306;52.516;13.290;2023-11-21T11:50:14;5.00;99.90
73955;DHT22;62306;52.516;13.290;2023-11-21T11:52:43;5.00;99.90
73955;DHT22;62306;52.516;13.290;2023-11-21T11:55:11;4.90;99.90
73955;DHT22;62306;52.516;13.290;2023-11-21T11:57:39;4.80;99.90
73955;DHT22;62306;52.516;13.290;2023-11-21T12:00:15;4.90;99.90
73955;DHT22;62306;52.516;13.290;2023-11-21T12:02:45;4.80;99.90
73955;DHT22;62306;52.516;13.290;2023-11-21T12:05:14;4.90;99.90
73955;DHT22;62306;52.516;13.290;2023-11-21T12:07:45;4.90;99.90
73955;DHT22;62306;52.516;13.290;2023-11-21T12:10:14;4.90;99.90
73955;DHT22;62306;52.516;13.290;2023-11-21T12:12:44;4.90;99.90
73955;DHT22;62306;52.516;13.290;2023-11-21T12:15:13;5.00;99.90
73955;DHT22;62306;52.516;13.290;2023-11-21T12:17:41;5.00;99.90
73955;DHT22;62306;52.516;13.290;2023-11-21T12:20:10;5.00;99.90
73955;DHT22;62306;52.516;13.290;2023-11-21T12:22:42;5.00;99.90
73955;DHT22;62306;52.516;13.290;2023-11-21T12:25:09;5.00;99.90
73955;DHT22;62306;52.516;13.290;2023-11-21T12:27:42;5.00;99.90
73955;DHT22;62306;52.516;13.290;2023-11-21T12:30:10;5.00;99.90
73955;DHT22;62306;52.516;13.290;2023-11-21T12:32:40;5.00;99.90
73955;DHT22;62306;52.516;13.290;2023-11-21T12:35:24;5.00;99.90
73955;DHT22;62306;52.516;13.290;2023-11-21T12:37:52;4.90;99.90
73955;DHT22;62306;52.516;13.290;2023-11-21T12:40:20;4.90;99.90
73955;DHT22;62306;52.516;13.290;2023-11-21T12:42:51;4.90;99.90
73955;DHT22;62306;52.516;13.290;2023-11-21T12:45:20;4.90;99.90
73955;DHT22;62306;52.516;13.290;2023-11-21T12:47:50;4.90;99.90
73955;DHT22;62306;52.516;13.290;2023-11-21T12:50:19;4.80;99.90
73955;DHT22;62306;52.516;13.290;2023-11-21T12:52:49;4.90;99.90
73955;DHT22;62306;52.516;13.290;2023-11-21T12:55:17;4.90;99.90
73955;DHT22;62306;52.516;13.290;2023-11-21T12:57:48;5.00;99.90
73955;DHT22;62306;52.516;13.290;2023-11-21T13:00:17;5.10;99.90
73955;DHT22;62306;52.516;13.290;2023-11-21T13:02:55;5.20;99.90
73955;DHT22;62306;52.516;13.290;2023-11-21T13:05:25;5.40;99.90
73955;DHT22;62306;52.516;13.290;2023-11-21T13:07:52;5.40;99.90
73955;DHT22;62306;52.516;13.290;2023-11-21T13:10:21;5.40;99.90
73955;DHT22;62306;52.516;13.290;2023-11-21T13:12:52;5.30;99.90
73955;DHT22;62306;52.516;13.290;2023-11-21T13:15:20;5.20;99.90
73955;DHT22;62306;52.516;13.290;2023-11-21T13:17:47;5.10;99.90
73955;DHT22;62306;52.516;13.290;2023-11-21T13:20:17;5.00;99.90
73955;DHT22;62306;52.516;13.290;2023-11-21T13:22:49;5.00;99.90
73955;DHT22;62306;52.516;13.290;2023-11-21T13:25:17;4.80;99.90
73955;DHT22;62306;52.516;13.290;2023-11-21T13:27:45;4.70;99.90
73955;DHT22;62306;52.516;13.290;2023-11-21T13:30:13;4.60;99.90
73955;DHT22;62306;52.516;13.290;2023-11-21T13:32:44;4.70;99.90
73955;DHT22;62306;52.516;13.290;2023-11-21T13:35:13;4.60;99.90
73955;DHT22;62306;52.516;13.290;2023-11-21T13:37:51;4.60;99.90
73955;DHT22;62306;52.516;13.290;2023-11-21T13:40:22;4.50;99.90
73955;DHT22;62306;52.516;13.290;2023-11-21T13:42:53;4.50;99.90
73955;DHT22;62306;52.516;13.290;2023-11-21T13:45:23;4.50;99.90
73955;DHT22;62306;52.516;13.290;2023-11-21T13:47:52;4.50;99.90
73955;DHT22;62306;52.516;13.290;2023-11-21T13:50:23;4.50;99.90
73955;DHT22;62306;52.516;13.290;2023-11-21T13:52:55;4.60;99.90
73955;DHT22;62306;52.516;13.290;2023-11-21T13:55:23;4.50;99.90
73955;DHT22;62306;52.516;13.290;2023-11-21T13:57:51;4.50;99.90
73955;DHT22;62306;52.516;13.290;2023-11-21T14:00:18;4.50;99.90
73955;DHT22;62306;52.516;13.290;2023-11-21T14:03:10;4.40;99.90
73955;DHT22;62306;52.516;13.290;2023-11-21T14:05:44;4.40;99.90
73955;DHT22;62306;52.516;13.290;2023-11-21T14:08:14;4.30;99.90
73955;DHT22;62306;52.516;13.290;2023-11-21T14:10:42;4.40;99.90
73955;DHT22;62306;52.516;13.290;2023-11-21T14:13:10;4.40;99.90
73955;DHT22;62306;52.516;13.290;2023-11-21T14:15:39;4.40;99.90
73955;DHT22;62306;52.516;13.290;2023-11-21T14:18:11;4.40;99.90
73955;DHT22;62306;52.516;13.290;2023-11-21T14:20:40;4.30;99.90
73955;DHT22;62306;52.516;13.290;2023-11-21T14:23:07;4.20;99.90
73955;DHT22;62306;52.516;13.290;2023-11-21T14:25:37;4.20;99.90
73955;DHT22;62306;52.516;13.290;2023-11-21T14:28:05;4.20;99.90
73955;DHT22;62306;52.516;13.290;2023-11-21T14:30:32;4.20;99.90
73955;DHT22;62306;52.516;13.290;2023-11-21T14:33:01;4.20;99.90
73955;DHT22;62306;52.516;13.290;2023-11-21T14:35:28;4.20;99.90
73955;DHT22;62306;52.516;13.290;2023-11-21T14:37:58;4.10;99.90
73955;DHT22;62306;52.516;13.290;2023-11-21T14:40:26;4.00;99.90
73955;DHT22;62306;52.516;13.290;2023-11-21T14:42:59;4.00;99.90
73955;DHT22;62306;52.516;13.290;2023-11-21T14:45:26;4.10;99.90
73955;DHT22;62306;52.516;13.290;2023-11-21T14:47:54;4.00;99.90
73955;DHT22;62306;52.516;13.290;2023-11-21T14:50:31;4.00;99.90
73955;DHT22;62306;52.516;13.290;2023-11-21T14:53:13;4.80;99.90
73955;DHT22;62306;52.516;13.290;2023-11-21T14:55:40;3.80;99.90
73955;DHT22;62306;52.516;13.290;2023-11-21T14:58:21;3.80;99.90
73955;DHT22;62306;52.516;13.290;2023-11-21T15:00:53;3.80;99.90
73955;DHT22;62306;52.516;13.290;2023-11-21T15:03:23;3.80;99.90
73955;DHT22;62306;52.516;13.290;2023-11-21T15:06:09;3.70;99.90
73955;DHT22;62306;52.516;13.290;2023-11-21T15:08:53;3.60;99.90
73955;DHT22;62306;52.516;13.290;2023-11-21T15:11:25;3.60;99.90
73955;DHT22;62306;52.516;13.290;2023-11-21T15:13:57;3.60;99.90
73955;DHT22;62306;52.516;13.290;2023-11-21T15:16:23;3.50;99.90
73955;DHT22;62306;52.516;13.290;2023-11-21T15:18:51;3.50;99.90
73955;DHT22;62306;52.516;13.290;2023-11-21T15:21:20;3.50;99.90
73955;DHT22;62306;52.516;13.290;2023-11-21T15:23:47;3.60;99.90
73955;DHT22;62306;52.516;13.290;2023-11-21T15:26:14;3.40;99.90
73955;DHT22;62306;52.516;13.290;2023-11-21T15:28:41;3.60;99.90
73955;DHT22;62306;52.516;13.290;2023-11-21T15:31:09;3.70;99.90
73955;DHT22;62306;52.516;13.290;2023-11-21T15:33:36;3.60;99.90
73955;DHT22;62306;52.516;13.290;2023-11-21T15:36:03;3.50;99.90
73955;DHT22;62306;52.516;13.290;2023-11-21T15:38:30;3.50;99.90
73955;DHT22;62306;52.516;13.290;2023-11-21T15:40:57;3.60;99.90
73955;DHT22;62306;52.516;13.290;2023-11-21T15:43:25;3.60;99.90
73955;DHT22;62306;52.516;13.290;2023-11-21T15:45:54;3.70;99.90
73955;DHT22;62306;52.516;13.290;2023-11-21T15:48:23;3.70;99.90
73955;DHT22;62306;52.516;13.290;2023-11-21T15:50:51;3.60;99.90
73955;DHT22;62306;52.516;13.290;2023-11-21T15:53:22;3.70;99.90
73955;DHT22;62306;52.516;13.290;2023-11-21T15:55:49;3.60;99.90
73955;DHT22;62306;52.516;13.290;2023-11-21T15:58:16;3.70;99.90
73955;DHT22;62306;52.516;13.290;2023-11-21T16:00:43;3.70;99.90
73955;DHT22;62306;52.516;13.290;2023-11-21T16:03:10;3.70;99.90
73955;DHT22;62306;52.516;13.290;2023-11-21T16:05:39;3.70;99.90
73955;DHT22;62306;52.516;13.290;2023-11-21T16:08:06;3.70;99.90
73955;DHT22;62306;52.516;13.290;2023-11-21T16:10:33;3.60;99.90
73955;DHT22;62306;52.516;13.290;2023-11-21T16:13:01;3.60;99.90
73955;DHT22;62306;52.516;13.290;2023-11-21T16:15:28;3.60;99.90
73955;DHT22;62306;52.516;13.290;2023-11-21T16:17:55;3.50;99.90
73955;DHT22;62306;52.516;13.290;2023-11-21T16:20:22;3.50;99.90
73955;DHT22;62306;52.516;13.290;2023-11-21T16:22:50;3.50;99.90
73955;DHT22;62306;52.516;13.290;2023-11-21T16:25:17;3.60;99.90
73955;DHT22;62306;52.516;13.290;2023-11-21T16:27:44;3.50;99.90
73955;DHT22;62306;52.516;13.290;2023-11-21T16:30:11;3.80;99.90
73955;DHT22;62306;52.516;13.290;2023-11-21T16:32:39;3.60;99.90
73955;DHT22;62306;52.516;13.290;2023-11-21T16:35:06;3.60;99.90
73955;DHT22;62306;52.516;13.290;2023-11-21T16:37:33;3.60;99.90
73955;DHT22;62306;52.516;13.290;2023-11-21T16:40:01;3.50;99.90
73955;DHT22;62306;52.516;13.290;2023-11-21T16:42:32;3.50;99.90
73955;DHT22;62306;52.516;13.290;2023-11-21T16:45:00;3.40;99.90
73955;DHT22;62306;52.516;13.290;2023-11-21T16:47:27;3.50;99.90
73955;DHT22;62306;52.516;13.290;2023-11-21T16:49:53;3.60;99.90
73955;DHT22;62306;52.516;13.290;2023-11-21T16:52:21;3.50;99.90
73955;DHT22;62306;52.516;13.290;2023-11-21T16:54:48;3.50;99.90
73955;DHT22;62306;52.516;13.290;2023-11-21T16:57:17;3.40;99.90
73955;DHT22;62306;52.516;13.290;2023-11-21T16:59:44;3.40;99.90
73955;DHT22;62306;52.516;13.290;2023-11-21T17:02:16;3.50;99.90
73955;DHT22;62306;52.516;13.290;2023-11-21T17:04:42;3.50;99.90
73955;DHT22;62306;52.516;13.290;2023-11-21T17:07:14;3.40;99.90
73955;DHT22;62306;52.516;13.290;2023-11-21T17:09:41;3.40;99.90
73955;DHT22;62306;52.516;13.290;2023-11-21T17:12:08;3.40;99.90
73955;DHT22;62306;52.516;13.290;2023-11-21T17:14:37;3.40;99.90
73955;DHT22;62306;52.516;13.290;2023-11-21T17:17:08;3.40;99.90
73955;DHT22;62306;52.516;13.290;2023-11-21T17:19:36;3.50;99.90
73955;DHT22;62306;52.516;13.290;2023-11-21T17:22:03;3.40;99.90
73955;DHT22;62306;52.516;13.290;2023-11-21T17:24:31;3.40;99.90
73955;DHT22;62306;52.516;13.290;2023-11-21T17:27:01;3.40;99.90
73955;DHT22;62306;52.516;13.290;2023-11-21T17:29:28;3.40;99.90
73955;DHT22;62306;52.516;13.290;2023-11-21T17:31:56;3.40;99.90
73955;DHT22;62306;52.516;13.290;2023-11-21T17:34:23;3.30;99.90
73955;DHT22;62306;52.516;13.290;2023-11-21T17:36:50;3.30;99.90
73955;DHT22;62306;52.516;13.290;2023-11-21T17:39:17;3.30;99.90
73955;DHT22;62306;52.516;13.290;2023-11-21T17:41:44;3.30;99.90
73955;DHT22;62306;52.516;13.290;2023-11-21T17:44:11;3.40;99.90
73955;DHT22;62306;52.516;13.290;2023-11-21T17:46:38;3.30;99.90
73955;DHT22;62306;52.516;13.290;2023-11-21T17:49:06;3.30;99.90
73955;DHT22;62306;52.516;13.290;2023-11-21T17:51:37;3.20;99.90
73955;DHT22;62306;52.516;13.290;2023-11-21T17:54:05;3.20;99.90
73955;DHT22;62306;52.516;13.290;2023-11-21T17:56:32;3.20;99.90
73955;DHT22;62306;52.516;13.290;2023-11-21T17:58:59;3.20;99.90
73955;DHT22;62306;52.516;13.290;2023-11-21T18:01:26;3.20;99.90
73955;DHT22;62306;52.516;13.290;2023-11-21T18:03:58;3.10;99.90
73955;DHT22;62306;52.516;13.290;2023-11-21T18:06:27;3.20;99.90
73955;DHT22;62306;52.516;13.290;2023-11-21T18:08:53;3.20;99.90
73955;DHT22;62306;52.516;13.290;2023-11-21T18:11:20;3.20;99.90
73955;DHT22;62306;52.516;13.290;2023-11-21T18:13:47;3.10;99.90
73955;DHT22;62306;52.516;13.290;2023-11-21T18:16:14;3.10;99.90
73955;DHT22;62306;52.516;13.290;2023-11-21T18:18:41;3.10;99.90
73955;DHT22;62306;52.516;13.290;2023-11-21T18:21:08;3.10;99.90
73955;DHT22;62306;52.516;13.290;2023-11-21T18:23:36;3.10;99.90
73955;DHT22;62306;52.516;13.290;2023-11-21T18:26:03;3.10;99.90
73955;DHT22;62306;52.516;13.290;2023-11-21T18:28:30;3.10;99.90
73955;DHT22;62306;52.516;13.290;2023-11-21T18:30:57;3.20;99.90
73955;DHT22;62306;52.516;13.290;2023-11-21T18:33:24;3.10;99.90
73955;DHT22;62306;52.516;13.290;2023-11-21T18:35:51;3.00;99.90
73955;DHT22;62306;52.516;13.290;2023-11-21T18:38:18;3.10;99.90
73955;DHT22;62306;52.516;13.290;2023-11-21T18:40:46;3.10;99.90
73955;DHT22;62306;52.516;13.290;2023-11-21T18:43:13;3.10;99.90
73955;DHT22;62306;52.516;13.290;2023-11-21T18:45:40;3.10;99.90
73955;DHT22;62306;52.516;13.290;2023-11-21T18:48:08;3.00;99.90
73955;DHT22;62306;52.516;13.290;2023-11-21T18:50:36;3.00;99.90
73955;DHT22;62306;52.516;13.290;2023-11-21T18:53:03;2.90;99.90
73955;DHT22;62306;52.516;13.290;2023-11-21T18:55:30;2.90;99.90
73955;DHT22;62306;52.516;13.290;2023-11-21T18:57:58;2.90;99.90
73955;DHT22;62306;52.516;13.290;2023-11-21T19:00:25;3.00;99.90
73955;DHT22;62306;52.516;13.290;2023-11-21T19:02:52;2.90;99.90
73955;DHT22;62306;52.516;13.290;2023-11-21T19:05:20;3.10;99.90
73955;DHT22;62306;52.516;13.290;2023-11-21T19:07:47;3.00;99.90
73955;DHT22;62306;52.516;13.290;2023-11-21T19:10:14;3.00;99.90
73955;DHT22;62306;52.516;13.290;2023-11-21T19:12:44;3.00;99.90
73955;DHT22;62306;52.516;13.290;2023-11-21T19:15:14;3.00;99.90
73955;DHT22;62306;52.516;13.290;2023-11-21T19:17:42;2.90;99.90
73955;DHT22;62306;52.516;13.290;2023-11-21T19:20:10;3.00;99.90
73955;DHT22;62306;52.516;13.290;2023-11-21T19:22:37;2.90;99.90
73955;DHT22;62306;52.516;13.290;2023-11-21T19:25:04;3.00;99.90
73955;DHT22;62306;52.516;13.290;2023-11-21T19:27:35;2.90;99.90
73955;DHT22;62306;52.516;13.290;2023-11-21T19:30:02;3.00;99.90
73955;DHT22;62306;52.516;13.290;2023-11-21T19:32:31;2.90;99.90
73955;DHT22;62306;52.516;13.290;2023-11-21T19:34:58;2.90;99.90
73955;DHT22;62306;52.516;13.290;2023-11-21T19:37:25;2.90;99.90
73955;DHT22;62306;52.516;13.290;2023-11-21T19:39:56;2.90;99.90
73955;DHT22;62306;52.516;13.290;2023-11-21T19:42:24;2.90;99.90
73955;DHT22;62306;52.516;13.290;2023-11-21T19:44:50;2.90;99.90
73955;DHT22;62306;52.516;13.290;2023-11-21T19:47:17;2.90;99.90
73955;DHT22;62306;52.516;13.290;2023-11-21T19:49:45;2.90;99.90
73955;DHT22;62306;52.516;13.290;2023-11-21T19:52:13;2.90;99.90
73955;DHT22;62306;52.516;13.290;2023-11-21T19:54:39;2.80;99.90
73955;DHT22;62306;52.516;13.290;2023-11-21T19:57:06;3.10;99.90
73955;DHT22;62306;52.516;13.290;2023-11-21T19:59:35;2.80;99.90
73955;DHT22;62306;52.516;13.290;2023-11-21T20:02:05;2.80;99.90
73955;DHT22;62306;52.516;13.290;2023-11-21T20:04:32;2.80;99.90
73955;DHT22;62306;52.516;13.290;2023-11-21T20:07:01;2.80;99.90
73955;DHT22;62306;52.516;13.290;2023-11-21T20:09:27;2.80;99.90
73955;DHT22;62306;52.516;13.290;2023-11-21T20:11:55;2.70;99.90
73955;DHT22;62306;52.516;13.290;2023-11-21T20:14:23;2.70;99.90
73955;DHT22;62306;52.516;13.290;2023-11-21T20:16:50;2.70;99.90
73955;DHT22;62306;52.516;13.290;2023-11-21T20:19:20;2.70;99.90
73955;DHT22;62306;52.516;13.290;2023-11-21T20:21:48;2.70;99.90
73955;DHT22;62306;52.516;13.290;2023-11-21T20:24:17;3.10;99.90
73955;DHT22;62306;52.516;13.290;2023-11-21T20:26:44;2.60;99.90
73955;DHT22;62306;52.516;13.290;2023-11-21T20:29:11;2.60;99.90
73955;DHT22;62306;52.516;13.290;2023-11-21T20:31:37;2.60;99.90
73955;DHT22;62306;52.516;13.290;2023-11-21T20:34:04;2.60;99.90
73955;DHT22;62306;52.516;13.290;2023-11-21T20:36:31;2.60;99.90
73955;DHT22;62306;52.516;13.290;2023-11-21T20:38:58;2.60;99.90
73955;DHT22;62306;52.516;13.290;2023-11-21T20:41:27;2.60;99.90
73955;DHT22;62306;52.516;13.290;2023-11-21T20:43:54;2.60;99.90
73955;DHT22;62306;52.516;13.290;2023-11-21T20:46:21;2.60;99.90
73955;DHT22;62306;52.516;13.290;2023-11-21T20:48:48;2.60;99.90
73955;DHT22;62306;52.516;13.290;2023-11-21T20:51:15;2.50;99.90
73955;DHT22;62306;52.516;13.290;2023-11-21T20:53:42;2.50;99.90
73955;DHT22;62306;52.516;13.290;2023-11-21T20:56:09;2.50;99.90
73955;DHT22;62306;52.516;13.290;2023-11-21T20:58:38;2.50;99.90
73955;DHT22;62306;52.516;13.290;2023-11-21T21:01:04;2.50;99.90
73955;DHT22;62306;52.516;13.290;2023-11-21T21:03:32;2.50;99.90
73955;DHT22;62306;52.516;13.290;2023-11-21T21:05:59;2.50;99.90
73955;DHT22;62306;52.516;13.290;2023-11-21T21:08:26;2.50;99.90
73955;DHT22;62306;52.516;13.290;2023-11-21T21:10:52;2.40;99.90
73955;DHT22;62306;52.516;13.290;2023-11-21T21:13:20;2.40;99.90
73955;DHT22;62306;52.516;13.290;2023-11-21T21:15:48;2.40;99.90
73955;DHT22;62306;52.516;13.290;2023-11-21T21:18:15;2.50;99.90
73955;DHT22;62306;52.516;13.290;2023-11-21T21:20:42;2.40;99.90
73955;DHT22;62306;52.516;13.290;2023-11-21T21:23:10;2.40;99.90
73955;DHT22;62306;52.516;13.290;2023-11-21T21:25:37;2.40;99.90
73955;DHT22;62306;52.516;13.290;2023-11-21T21:28:05;2.40;99.90
73955;DHT22;62306;52.516;13.290;2023-11-21T21:30:32;2.40;99.90
73955;DHT22;62306;52.516;13.290;2023-11-21T21:33:00;2.40;99.90
73955;DHT22;62306;52.516;13.290;2023-11-21T21:35:27;2.20;99.90
73955;DHT22;62306;52.516;13.290;2023-11-21T21:37:54;2.30;99.90
73955;DHT22;62306;52.516;13.290;2023-11-21T21:40:23;2.30;99.90
73955;DHT22;62306;52.516;13.290;2023-11-21T21:42:51;2.20;99.90
73955;DHT22;62306;52.516;13.290;2023-11-21T21:45:18;2.30;99.90
73955;DHT22;62306;52.516;13.290;2023-11-21T21:47:46;2.20;99.90
73955;DHT22;62306;52.516;13.290;2023-11-21T21:50:15;2.20;99.90
73955;DHT22;62306;52.516;13.290;2023-11-21T21:52:42;2.20;99.90
73955;DHT22;62306;52.516;13.290;2023-11-21T21:55:09;2.20;99.90
73955;DHT22;62306;52.516;13.290;2023-11-21T21:57:39;2.20;99.90
73955;DHT22;62306;52.516;13.290;2023-11-21T22:00:06;2.20;99.90
73955;DHT22;62306;52.516;13.290;2023-11-21T22:02:34;2.10;99.90
73955;DHT22;62306;52.516;13.290;2023-11-21T22:05:01;2.00;99.90
73955;DHT22;62306;52.516;13.290;2023-11-21T22:07:29;2.00;99.90
73955;DHT22;62306;52.516;13.290;2023-11-21T22:09:56;1.90;99.90
